Time;durP1;ratioP1;P1;durP2;ratioP2;P2;SDS_P1;SDS_P2;PMS_P1;PMS_P2;Temp;Humidity;BMP_temperature;BMP_pressure;BME280_temperature;BME280_humidity;BME280_pressure;Samples;Min_cycle;Max_cycle;Signal;HPM_P1;HPM_P2
2022/03/27 00:02:08;;;;;;;21.85;2.42;;;;;;;19.19;59.06;100816.28;7310315;19;153699;-36
2022/03/27 00:04:33;;;;;;;20.13;2.97;;;;;;;19.07;57.25;100802.22;7308911;19;159089;-35
2022/03/27 00:06:59;;;;;;;26.05;2.97;;;;;;;19.16;57.62;100832.97;7308734;19;159031;-39
2022/03/27 00:09:24;;;;;;;34.17;4.05;;;;;;;19.18;59.08;100833.72;7308181;19;129209;-35
2022/03/27 00:11:49;;;;;;;20.30;2.50;;;;;;;19.20;58.07;100837.06;7309453;19;154918;-35
2022/03/27 00:14:14;;;;;;;21.47;2.50;;;;;;;19.20;58.72;100839.66;7309671;19;158926;-37
2022/03/27 00:16:40;;;;;;;8.13;1.60;;;;;;;19.17;58.23;100845.03;7309065;19;129919;-34
2022/03/27 00:19:06;;;;;;;30.30;3.25;;;;;;;19.17;57.59;100844.22;7309289;19;129186;-37
2022/03/27 00:21:31;;;;;;;33.22;3.78;;;;;;;19.16;58.21;100837.31;7310072;19;128920;-39
2022/03/27 00:23:57;;;;;;;28.05;3.13;;;;;;;19.18;59.60;100849.34;7311024;19;130198;-35
2022/03/27 00:26:22;;;;;;;13.15;2.22;;;;;;;19.16;57.86;100843.38;7310724;19;130344;-38
2022/03/27 00:28:48;;;;;;;24.38;2.75;;;;;;;19.17;56.87;100847.66;7309286;19;129993;-39
2022/03/27 00:31:14;;;;;;;19.83;2.43;;;;;;;19.14;58.43;100845.25;7309016;19;129816;-35
2022/03/27 00:33:41;;;;;;;29.07;3.17;;;;;;;19.17;58.67;100842.44;7310182;19;129805;-37
2022/03/27 00:36:10;;;;;;;34.08;2.83;;;;;;;19.17;58.33;100836.41;7309638;19;129263;-31
2022/03/27 00:38:35;;;;;;;14.20;2.03;;;;;;;19.09;58.22;100826.44;7316239;19;129882;-36
2022/03/27 00:41:01;;;;;;;20.75;2.47;;;;;;;19.17;58.86;100839.84;7316894;19;129341;-34
2022/03/27 00:43:27;;;;;;;31.77;3.58;;;;;;;19.17;58.37;100839.84;7317041;19;129042;-43
2022/03/27 00:45:53;;;;;;;19.42;2.45;;;;;;;19.20;57.88;100834.47;7318170;19;130470;-33
2022/03/27 00:48:20;;;;;;;32.60;3.47;;;;;;;19.11;58.52;100827.19;7316798;19;129204;-37
2022/03/27 00:50:47;;;;;;;17.25;2.17;;;;;;;19.17;57.68;100842.44;7318446;19;129098;-38
2022/03/27 00:53:12;;;;;;;;;;;;;;;19.22;59.37;100843.00;7317440;19;130115;-34
2022/03/27 00:55:38;;;;;;;32.27;3.43;;;;;;;19.19;57.25;100837.97;7314981;19;155893;-34
2022/03/27 00:58:04;;;;;;;17.50;2.45;;;;;;;19.19;57.67;100837.13;7316218;19;129318;-44
2022/03/27 01:00:43;;;;;;;25.35;2.83;;;;;;;19.23;59.21;100836.03;7315693;19;128829;-40
2022/03/27 01:03:12;;;;;;;15.50;2.17;;;;;;;19.21;58.28;100846.53;7318138;19;130589;-39
2022/03/27 01:05:38;;;;;;;38.53;4.05;;;;;;;19.21;58.80;100843.09;7316175;19;130886;-43
2022/03/27 01:08:08;;;;;;;19.35;2.70;;;;;;;19.22;58.92;100843.00;7314902;19;130844;-41
2022/03/27 01:10:34;;;;;;;34.75;3.63;;;;;;;19.24;57.81;100840.28;7315303;19;129701;-37
2022/03/27 01:13:04;;;;;;;21.15;2.70;;;;;;;19.20;58.66;100837.06;7316840;19;130467;-37
2022/03/27 01:15:33;;;;;;;43.80;4.43;;;;;;;19.21;57.70;100836.13;7316803;19;130392;-44
2022/03/27 01:17:58;;;;;;;21.40;2.58;;;;;;;19.21;58.08;100840.50;7313755;19;129501;-37
2022/03/27 01:20:33;;;;;;;14.02;2.03;;;;;;;19.24;58.51;100835.06;7314790;19;154164;-39
2022/03/27 01:22:58;;;;;;;27.80;3.42;;;;;;;19.23;58.98;100843.84;7315789;19;130776;-39
2022/03/27 01:25:24;;;;;;;41.00;4.63;;;;;;;19.19;58.81;100837.97;7316066;19;129966;-37
2022/03/27 01:27:49;;;;;;;18.10;2.22;;;;;;;19.21;57.70;100835.28;7314979;19;130220;-43
2022/03/27 01:30:14;;;;;;;17.77;2.22;;;;;;;19.21;58.41;100833.50;7314582;19;154610;-41
2022/03/27 01:32:40;;;;;;;27.80;3.27;;;;;;;19.20;57.71;100829.25;7314358;19;159536;-43
2022/03/27 01:35:06;;;;;;;26.97;2.87;;;;;;;19.23;57.59;100829.06;7315214;19;158475;-37
2022/03/27 01:37:31;;;;;;;38.50;4.37;;;;;;;19.21;58.02;100825.69;7314382;19;129396;-40
2022/03/27 01:39:56;;;;;;;14.10;2.33;;;;;;;19.22;58.14;100826.53;7314439;19;154023;-39
2022/03/27 01:42:22;;;;;;;28.25;3.17;;;;;;;19.22;58.23;100824.75;7316151;19;130195;-38
2022/03/27 01:44:47;;;;;;;15.65;2.00;;;;;;;19.19;58.02;100822.34;7317203;19;130340;-40
2022/03/27 01:47:12;;;;;;;3.23;1.00;;;;;;;19.19;58.85;100827.56;7313109;19;155062;-42
2022/03/27 01:49:40;;;;;;;29.37;3.23;;;;;;;19.20;57.86;100825.78;7312194;19;153416;-41
2022/03/27 01:52:06;;;;;;;26.38;2.88;;;;;;;19.15;58.23;100826.06;7316060;19;129507;-39
2022/03/27 01:54:31;;;;;;;15.90;2.13;;;;;;;19.05;58.46;100809.31;7315933;19;130338;-38
2022/03/27 01:56:56;;;;;;;36.08;3.88;;;;;;;19.11;58.46;100814.16;7312612;19;155267;-38
2022/03/27 01:59:22;;;;;;;26.48;3.17;;;;;;;19.23;57.62;100830.81;7311849;19;149057;-37
2022/03/27 02:01:48;;;;;;;24.58;2.88;;;;;;;19.24;58.56;100825.50;7315766;19;130735;-35
2022/03/27 02:04:13;;;;;;;19.10;2.17;;;;;;;19.24;58.71;100827.25;7316243;19;130183;-41
2022/03/27 02:06:39;;;;;;;22.47;2.80;;;;;;;19.22;58.02;100816.94;7313543;19;154001;-36
2022/03/27 02:09:05;;;;;;;37.33;4.13;;;;;;;19.22;58.78;100816.94;7313784;19;130125;-42
2022/03/27 02:11:30;;;;;;;43.00;4.35;;;;;;;19.20;57.62;100818.81;7313436;19;129081;-39
2022/03/27 02:13:56;;;;;;;25.08;3.03;;;;;;;19.23;58.03;100818.63;7313089;19;130148;-36
2022/03/27 02:16:21;;;;;;;22.55;2.55;;;;;;;19.22;58.88;100811.72;7312668;19;154841;-39
2022/03/27 02:18:47;;;;;;;24.70;2.90;;;;;;;19.21;58.11;100820.47;7312134;19;128917;-42
2022/03/27 02:21:12;;;;;;;29.92;3.42;;;;;;;19.21;57.89;100825.69;7314447;19;129716;-38
2022/03/27 02:23:38;;;;;;;27.73;3.17;;;;;;;19.15;58.41;100814.81;7312664;19;141147;-42
2022/03/27 02:26:05;;;;;;;20.98;2.63;;;;;;;19.20;58.51;100829.25;7314779;19;131718;-41
2022/03/27 02:28:31;;;;;;;30.70;3.17;;;;;;;19.21;58.10;100828.31;7313279;19;129182;-41
2022/03/27 02:30:56;;;;;;;25.80;2.90;;;;;;;19.21;58.25;100822.22;7313466;19;131723;-43
2022/03/27 02:33:22;;;;;;;18.20;2.17;;;;;;;19.23;57.91;100822.97;7314817;19;129544;-41
2022/03/27 02:35:47;;;;;;;25.75;2.88;;;;;;;19.22;58.95;100816.94;7314482;19;129401;-36
2022/03/27 02:38:12;;;;;;;9.25;1.52;;;;;;;19.21;58.55;100819.63;7310930;19;130849;-41
2022/03/27 02:40:39;;;;;;;33.63;3.75;;;;;;;19.23;58.24;100821.22;7312054;19;159132;-41
2022/03/27 02:43:05;;;;;;;20.13;2.33;;;;;;;19.25;57.78;100824.56;7313875;19;129279;-40
2022/03/27 02:45:31;;;;;;;48.53;5.13;;;;;;;19.15;58.16;100810.44;7313255;19;130315;-39
2022/03/27 02:47:57;;;;;;;19.70;2.27;;;;;;;19.25;58.22;100824.56;7312841;19;129094;-39
2022/03/27 02:50:24;;;;;;;22.92;2.45;;;;;;;19.26;57.54;100818.44;7313034;19;129739;-41
2022/03/27 02:52:49;;;;;;;18.42;2.25;;;;;;;19.27;58.11;100822.69;7312778;19;130762;-41
2022/03/27 02:55:14;;;;;;;18.45;2.38;;;;;;;19.25;58.66;100826.34;7313451;19;129943;-41
2022/03/27 02:57:40;;;;;;;28.55;3.30;;;;;;;19.26;57.50;100828.00;7310859;19;150477;-41
2022/03/27 03:00:07;;;;;;;29.20;3.13;;;;;;;19.24;58.66;100830.72;7309801;19;131134;-44
2022/03/27 03:02:34;;;;;;;26.92;3.00;;;;;;;19.26;57.79;100828.84;7313152;19;130173;-40
2022/03/27 03:04:59;;;;;;;20.07;2.60;;;;;;;19.25;58.78;100832.38;7314475;19;129680;-40
2022/03/27 03:07:25;;;;;;;19.20;2.30;;;;;;;19.21;59.41;100830.06;7313617;19;128913;-41
2022/03/27 03:09:50;;;;;;;23.33;2.83;;;;;;;19.13;58.09;100812.28;7312961;19;131210;-41
2022/03/27 03:12:16;;;;;;;17.92;2.22;;;;;;;19.23;57.75;100838.63;7314017;19;130470;-43
2022/03/27 03:14:41;;;;;;;24.45;2.58;;;;;;;19.28;58.59;100831.38;7312741;19;141978;-39
2022/03/27 03:17:08;;;;;;;22.08;2.65;;;;;;;19.25;58.23;100831.56;7310640;19;128927;-42
2022/03/27 03:19:34;;;;;;;;;;;;;;;19.26;59.07;100833.22;7309500;19;129356;-37
2022/03/27 03:21:59;;;;;;;34.42;3.25;;;;;;;19.25;57.43;100842.81;7312473;19;129226;-43
2022/03/27 03:24:25;;;;;;;24.73;2.75;;;;;;;19.22;57.89;100837.78;7312419;19;134199;-40
2022/03/27 03:26:51;;;;;;;16.52;2.05;;;;;;;19.20;58.22;100839.66;7313311;19;128910;-37
2022/03/27 03:29:16;;;;;;;16.08;1.88;;;;;;;19.12;58.82;100828.84;7309874;19;129282;-41
2022/03/27 03:31:41;;;;;;;23.33;2.65;;;;;;;19.21;58.17;100840.50;7311415;19;157599;-36
2022/03/27 03:34:07;;;;;;;19.05;2.33;;;;;;;19.22;58.86;100837.78;7312369;19;155152;-37
2022/03/27 03:36:32;;;;;;;18.60;2.25;;;;;;;19.21;58.33;100841.34;7311876;19;129217;-35
2022/03/27 03:38:57;;;;;;;32.38;3.53;;;;;;;19.21;59.12;100846.53;7308985;19;159126;-37
2022/03/27 03:41:23;;;;;;;22.23;2.65;;;;;;;19.21;58.54;100841.34;7313165;19;130455;-32
2022/03/27 03:43:49;;;;;;;20.80;2.28;;;;;;;19.23;57.35;100842.09;7311944;19;128915;-43
2022/03/27 03:46:14;;;;;;;24.13;2.65;;;;;;;19.24;58.38;100838.53;7309960;19;130192;-35
2022/03/27 03:48:40;;;;;;;22.80;2.67;;;;;;;19.23;58.56;100830.81;7308405;19;159117;-36
2022/03/27 03:51:05;;;;;;;23.47;2.73;;;;;;;19.28;58.47;100836.56;7312240;19;130476;-36
2022/03/27 03:53:31;;;;;;;9.52;1.55;;;;;;;19.26;59.21;100833.22;7311820;19;128847;-33
2022/03/27 03:55:56;;;;;;;21.17;2.53;;;;;;;19.23;58.34;100839.47;7312474;19;129324;-39
2022/03/27 03:58:22;;;;;;;16.03;1.83;;;;;;;19.25;58.78;100840.19;7308934;19;158539;-38
2022/03/27 04:00:47;;;;;;;4.53;1.10;;;;;;;19.27;58.27;100843.56;7310374;19;158589;-39
2022/03/27 04:03:13;;;;;;;38.33;3.90;;;;;;;19.22;59.02;100848.22;7310819;19;130079;-38
2022/03/27 04:05:38;;;;;;;26.70;2.93;;;;;;;19.29;57.82;100848.69;7311114;19;129057;-37
2022/03/27 04:08:04;;;;;;;21.95;2.63;;;;;;;19.27;58.13;100851.38;7312129;19;129678;-42
2022/03/27 04:10:29;;;;;;;11.18;1.88;;;;;;;19.26;58.00;100849.72;7311539;19;130385;-33
2022/03/27 04:12:54;;;;;;;19.83;2.13;;;;;;;19.25;58.78;100850.63;7310032;19;154795;-40
2022/03/27 04:15:20;;;;;;;30.25;3.13;;;;;;;19.24;57.94;100848.97;7310235;19;154293;-34
2022/03/27 04:17:46;;;;;;;16.13;1.80;;;;;;;19.26;57.57;100852.31;7308528;19;158289;-34
2022/03/27 04:20:13;;;;;;;26.83;3.05;;;;;;;19.17;58.22;100834.63;7310916;19;129199;-37
2022/03/27 04:22:38;;;;;;;;;;;;;;;19.30;59.40;100855.63;7312187;19;130377;-35
2022/03/27 04:25:05;;;;;;;31.23;3.42;;;;;;;19.26;58.23;100849.72;7310389;19;129034;-32
2022/03/27 04:27:30;;;;;;;24.13;2.63;;;;;;;19.27;57.66;100850.56;7310298;19;130434;-32
2022/03/27 04:29:56;;;;;;;24.10;2.65;;;;;;;19.27;58.10;100855.78;7310991;19;130344;-36
2022/03/27 04:32:21;;;;;;;21.20;2.37;;;;;;;19.26;58.49;100857.53;7310325;19;147592;-41
2022/03/27 04:34:50;;;;;;;23.70;2.57;;;;;;;19.26;57.92;100862.75;7309110;19;154186;-34
2022/03/27 04:37:15;;;;;;;35.70;3.53;;;;;;;19.27;58.55;100861.00;7308948;19;130774;-37
2022/03/27 04:39:40;;;;;;;26.92;2.97;;;;;;;19.27;57.98;100869.63;7308324;19;151126;-38
2022/03/27 04:42:06;;;;;;;26.63;3.00;;;;;;;19.25;57.82;100858.44;7310209;19;149583;-41
2022/03/27 04:44:31;;;;;;;21.52;2.28;;;;;;;19.27;58.49;100861.00;7308844;19;129469;-38
2022/03/27 04:46:57;;;;;;;27.75;2.92;;;;;;;19.27;57.84;100864.41;7308588;19;158443;-33
2022/03/27 04:49:22;;;;;;;16.93;1.93;;;;;;;19.24;58.61;100859.38;7304821;19;159282;-41
2022/03/27 04:51:47;;;;;;;21.33;2.20;;;;;;;19.16;58.04;100843.38;7309428;19;154346;-32
2022/03/27 04:54:12;;;;;;;16.30;2.03;;;;;;;19.23;58.43;100859.47;7308491;19;154098;-36
2022/03/27 04:56:37;;;;;;;15.97;2.10;;;;;;;19.25;57.67;100852.41;7307676;19;158354;-39
2022/03/27 04:59:03;;;;;;;39.37;4.17;;;;;;;19.26;57.70;100861.91;7304637;19;159132;-35
2022/03/27 05:01:28;;;;;;;21.98;2.35;;;;;;;19.27;57.92;100853.97;7308181;19;154500;-42
2022/03/27 05:03:53;;;;;;;31.77;3.50;;;;;;;19.27;58.22;100855.78;7306783;19;154129;-33
2022/03/27 05:06:19;;;;;;;17.13;2.00;;;;;;;19.26;58.43;100857.53;7308850;19;129413;-33
2022/03/27 05:08:44;;;;;;;35.28;3.85;;;;;;;19.24;58.66;100862.00;7307398;19;130436;-37
2022/03/27 05:11:10;;;;;;;17.20;1.90;;;;;;;19.25;58.14;100858.44;7310044;19;129688;-37
2022/03/27 05:13:36;;;;;;;25.70;2.87;;;;;;;19.23;58.75;100855.13;7309426;19;129932;-41
2022/03/27 05:16:01;;;;;;;20.20;2.40;;;;;;;19.27;58.28;100866.19;7307280;19;158829;-36
2022/03/27 05:18:26;;;;;;;23.60;2.57;;;;;;;19.26;58.92;100867.97;7306068;19;159001;-36
2022/03/27 05:20:51;;;;;;;20.97;2.53;;;;;;;19.25;59.53;100870.66;7306943;19;156026;-38
2022/03/27 05:23:16;;;;;;;15.47;1.90;;;;;;;19.15;59.56;100862.56;7311345;19;152422;-36
2022/03/27 05:25:45;;;;;;;27.23;3.03;;;;;;;19.28;57.48;100879.13;7314476;19;158622;-41
2022/03/27 05:28:12;;;;;;;17.27;2.10;;;;;;;19.21;58.35;100864.78;7314297;19;130594;-41
2022/03/27 05:30:37;;;;;;;;;;;;;;;19.31;59.13;100884.19;7315956;19;128995;-39
2022/03/27 05:33:03;;;;;;;46.03;4.32;;;;;;;19.30;58.27;100887.72;7314022;19;129677;-40
2022/03/27 05:35:29;;;;;;;51.35;5.55;;;;;;;19.29;58.30;100890.41;7314285;19;130230;-41
2022/03/27 05:37:55;;;;;;;15.80;2.08;;;;;;;19.30;57.71;100892.13;7313111;19;129783;-40
2022/03/27 05:40:21;;;;;;;15.68;1.60;;;;;;;19.27;58.55;100887.06;7312824;19;129338;-40
2022/03/27 05:42:47;;;;;;;13.95;1.88;;;;;;;19.26;58.41;100886.22;7316337;19;129521;-35
2022/03/27 05:45:13;;;;;;;19.97;2.37;;;;;;;19.28;57.95;100896.53;7314470;19;130101;-40
2022/03/27 05:47:42;;;;;;;28.77;3.17;;;;;;;19.29;58.61;100895.63;7314396;19;129943;-39
2022/03/27 05:50:12;;;;;;;30.00;3.35;;;;;;;19.27;58.68;100887.06;7313332;19;129141;-39
2022/03/27 05:52:38;;;;;;;26.45;2.95;;;;;;;19.27;57.59;100887.88;7315701;19;129804;-36
2022/03/27 05:55:05;;;;;;;31.55;3.22;;;;;;;19.26;58.34;100891.44;7315171;19;130390;-38
2022/03/27 05:57:30;;;;;;;30.80;3.28;;;;;;;19.28;57.74;100892.19;7312231;19;130144;-38
2022/03/27 05:59:55;;;;;;;25.17;2.67;;;;;;;19.28;56.95;100892.19;7314713;19;137039;-36
2022/03/27 06:02:21;;;;;;;15.52;1.92;;;;;;;19.27;58.96;100887.88;7313748;19;151108;-41
2022/03/27 06:04:46;;;;;;;37.42;4.03;;;;;;;19.25;58.97;100888.91;7313448;19;158627;-41
2022/03/27 06:07:11;;;;;;;26.67;2.87;;;;;;;19.26;58.13;100891.44;7311735;19;147202;-37
2022/03/27 06:09:36;;;;;;;29.83;3.30;;;;;;;19.26;58.36;100887.97;7309959;19;154585;-41
2022/03/27 06:12:04;;;;;;;22.60;2.40;;;;;;;19.29;58.07;100888.66;7313278;19;154105;-36
2022/03/27 06:14:30;;;;;;;35.80;3.83;;;;;;;19.26;59.11;100891.44;7313783;19;130892;-41
2022/03/27 06:16:56;;;;;;;30.83;3.13;;;;;;;19.25;57.98;100887.13;7313750;19;130088;-38
2022/03/27 06:19:21;;;;;;;14.33;2.17;;;;;;;19.25;58.28;100889.72;7312748;19;129925;-38
2022/03/27 06:21:46;;;;;;;13.75;1.90;;;;;;;19.27;58.80;100895.69;7312253;19;154217;-41
2022/03/27 06:24:12;;;;;;;23.67;2.70;;;;;;;19.27;58.12;100887.88;7312878;19;158280;-40
2022/03/27 06:26:41;;;;;;;34.63;3.63;;;;;;;19.30;58.35;100898.16;7313025;19;130495;-37
2022/03/27 06:29:10;;;;;;;32.70;3.67;;;;;;;19.30;57.82;100897.31;7311008;19;130335;-36
2022/03/27 06:31:38;;;;;;;28.08;3.03;;;;;;;19.28;58.47;100897.38;7312950;19;129240;-37
2022/03/27 06:34:04;;;;;;;20.15;2.50;;;;;;;19.30;58.82;100907.75;7313558;19;130259;-41
2022/03/27 06:36:30;;;;;;;40.00;4.15;;;;;;;19.30;58.60;100905.97;7312802;19;129860;-39
2022/03/27 06:38:55;;;;;;;33.42;3.38;;;;;;;19.27;59.10;100906.13;7307621;19;130145;-39
2022/03/27 06:41:20;;;;;;;31.25;3.42;;;;;;;19.26;58.15;100901.00;7313148;19;128885;-36
2022/03/27 06:43:46;;;;;;;19.10;2.33;;;;;;;19.17;57.98;100884.16;7312097;19;158231;-41
2022/03/27 06:46:15;;;;;;;27.88;2.85;;;;;;;19.27;57.74;100892.28;7312461;19;137995;-42
2022/03/27 06:48:40;;;;;;;33.95;3.60;;;;;;;19.28;58.89;100900.00;7309856;19;130264;-37
2022/03/27 06:51:06;;;;;;;19.38;2.20;;;;;;;19.28;58.03;100897.38;7313083;19;155031;-42
2022/03/27 06:53:34;;;;;;;37.33;3.78;;;;;;;19.26;59.17;100896.63;7313040;19;130673;-37
2022/03/27 06:56:00;;;;;;;40.15;4.07;;;;;;;19.26;57.51;100896.63;7306241;19;129610;-41
2022/03/27 06:58:25;;;;;;;30.35;3.30;;;;;;;19.27;57.75;100890.47;7311727;19;129010;-36
2022/03/27 07:03:34;;;;;;;25.83;2.65;;;;;;;19.27;58.67;100887.88;7313074;19;129309;-41
2022/03/27 07:05:59;;;;;;;55.28;5.55;;;;;;;19.26;58.29;100891.44;7308549;19;145053;-41
2022/03/27 07:08:25;;;;;;;33.30;3.38;;;;;;;19.27;57.52;100882.66;7309565;19;140276;-41
2022/03/27 07:10:50;;;;;;;12.10;1.88;;;;;;;19.26;57.95;100886.22;7312062;19;129940;-40
2022/03/27 07:13:17;;;;;;;16.02;1.88;;;;;;;19.25;58.32;100883.69;7312880;19;130673;-41
2022/03/27 07:15:43;;;;;;;;;;;;;;;19.34;59.61;100878.78;7314709;19;130444;-41
2022/03/27 07:18:09;;;;;;;27.25;3.00;;;;;;;19.30;58.82;100882.50;7311225;19;129183;-41
2022/03/27 07:20:36;;;;;;;34.13;4.00;;;;;;;19.26;57.42;100872.31;7309398;19;129657;-38
2022/03/27 07:23:04;;;;;;;27.13;2.97;;;;;;;19.24;57.74;100882.00;7312352;19;130181;-36
2022/03/27 07:25:32;;;;;;;27.50;3.35;;;;;;;19.27;57.85;100881.84;7309363;19;129286;-37
2022/03/27 07:27:58;;;;;;;18.75;2.15;;;;;;;19.29;57.67;100888.66;7311972;19;128965;-38
2022/03/27 07:30:23;;;;;;;45.70;4.45;;;;;;;19.31;58.26;100886.81;7309371;19;154288;-34
2022/03/27 07:32:52;;;;;;;31.58;3.28;;;;;;;19.28;57.73;100879.13;7312652;19;129226;-30
2022/03/27 07:35:17;;;;;;;27.50;3.08;;;;;;;19.28;58.49;100889.56;7311433;19;131366;-37
2022/03/27 07:37:44;;;;;;;24.63;2.67;;;;;;;19.29;58.04;100885.19;7308356;19;129216;-35
2022/03/27 07:40:10;;;;;;;23.17;2.58;;;;;;;19.27;58.24;100887.06;7311657;19;129597;-37
2022/03/27 07:42:37;;;;;;;28.50;3.27;;;;;;;19.26;57.92;100886.22;7309768;19;131059;-39
2022/03/27 07:45:03;;;;;;;28.90;3.00;;;;;;;19.31;57.97;100894.63;7310414;19;130339;-31
2022/03/27 07:47:29;;;;;;;58.25;5.03;;;;;;;19.30;57.92;100887.72;7307513;19;130451;-36
2022/03/27 07:49:54;;;;;;;28.77;3.13;;;;;;;19.32;58.25;100895.47;7307339;19;129524;-38
2022/03/27 07:52:20;;;;;;;15.20;1.90;;;;;;;19.31;58.09;100894.63;7309883;19;130207;-39
2022/03/27 07:54:45;;;;;;;29.17;2.90;;;;;;;19.28;58.85;100900.00;7310720;19;130387;-35
2022/03/27 07:57:11;;;;;;;13.27;2.03;;;;;;;19.24;58.34;100898.50;7307793;19;130138;-35
2022/03/27 07:59:36;;;;;;;28.02;3.13;;;;;;;19.27;58.19;100902.69;7306102;19;154066;-38
2022/03/27 08:02:02;;;;;;;27.00;2.97;;;;;;;19.25;58.45;100900.16;7309508;19;130323;-36
2022/03/27 08:04:27;;;;;;;33.05;3.13;;;;;;;19.28;58.57;100900.00;7310325;19;131111;-35
2022/03/27 08:06:53;;;;;;;22.05;2.47;;;;;;;19.29;58.15;100900.84;7310440;19;130612;-40
2022/03/27 08:09:18;;;;;;;19.35;2.38;;;;;;;19.21;58.17;100888.25;7308772;19;129261;-38
2022/03/27 08:11:43;;;;;;;26.97;2.80;;;;;;;19.24;58.44;100906.31;7308343;19;158521;-35
2022/03/27 08:14:10;;;;;;;24.27;2.67;;;;;;;19.25;58.37;100902.75;7309026;19;129379;-35
2022/03/27 08:16:37;;;;;;;27.35;3.03;;;;;;;19.22;58.80;100904.75;7309374;19;129796;-36
2022/03/27 08:19:02;;;;;;;37.70;3.92;;;;;;;19.21;59.22;100903.06;7306435;19;129858;-30
2022/03/27 08:21:28;;;;;;;21.13;2.40;;;;;;;19.24;58.27;100892.44;7308645;19;129301;-38
2022/03/27 08:23:53;;;;;;;32.38;3.33;;;;;;;19.24;57.34;100905.47;7309847;19;129234;-35
2022/03/27 08:29:03;;;;;;;23.67;2.58;;;;;;;19.21;58.64;100898.69;7307848;19;129303;-36
2022/03/27 08:31:30;;;;;;;23.88;2.72;;;;;;;19.24;58.23;100897.66;7310815;19;130214;-40
2022/03/27 08:33:55;;;;;;;26.52;2.72;;;;;;;19.24;58.25;100908.91;7306450;19;130643;-40
2022/03/27 08:36:20;;;;;;;22.00;2.42;;;;;;;19.21;58.82;100903.91;7308438;19;129041;-38
2022/03/27 08:38:46;;;;;;;34.50;3.38;;;;;;;19.19;57.95;100900.53;7307898;19;129574;-43
2022/03/27 08:41:12;;;;;;;23.30;2.47;;;;;;;19.21;58.81;100903.91;7307836;19;152345;-37
2022/03/27 08:43:39;;;;;;;26.77;2.77;;;;;;;19.22;58.31;100900.34;7309830;19;131129;-40
2022/03/27 08:46:05;;;;;;;22.83;2.63;;;;;;;19.25;58.07;100907.97;7310674;19;129752;-35
2022/03/27 08:48:33;;;;;;;34.55;3.67;;;;;;;19.14;57.95;100892.16;7306264;19;129503;-43
2022/03/27 08:51:15;;;;;;;24.25;2.65;;;;;;;19.21;58.16;100908.25;7310209;19;129991;-33
2022/03/27 08:54:03;;;;;;;39.47;3.88;;;;;;;19.26;59.51;100907.06;7303803;19;159248;-37
2022/03/27 08:56:30;;;;;;;31.63;3.22;;;;;;;19.21;58.18;100909.13;7307370;19;128987;-40
2022/03/27 08:58:57;;;;;;;;;;;;;;;19.24;59.89;100914.13;7313981;19;132389;-38
2022/03/27 09:01:22;;;;;;;17.33;2.22;;;;;;;19.19;59.00;100904.91;7316937;19;129138;-33
2022/03/27 09:03:48;;;;;;;29.63;2.90;;;;;;;19.19;58.52;100908.38;7310619;19;131353;-34
2022/03/27 09:06:13;;;;;;;52.90;5.70;;;;;;;19.20;58.38;100904.84;7301561;19;153842;-40
2022/03/27 09:08:39;;;;;;;22.23;2.58;;;;;;;19.21;58.05;100911.72;7307753;19;130701;-36
2022/03/27 09:11:04;;;;;;;14.45;1.70;;;;;;;19.20;58.70;100907.44;7314731;19;130268;-37
2022/03/27 09:13:31;;;;;;;27.27;2.78;;;;;;;19.23;58.40;100911.63;7312662;19;131164;-40
2022/03/27 09:16:07;;;;;;;21.48;2.55;;;;;;;19.22;58.57;100910.78;7315223;19;129540;-37
2022/03/27 09:18:42;;;;;;;37.97;3.60;;;;;;;19.27;59.21;100902.69;7312583;19;129268;-35
2022/03/27 09:21:08;;;;;;;25.70;2.92;;;;;;;19.25;57.63;100894.94;7316103;19;130133;-38
2022/03/27 09:23:35;;;;;;;38.60;3.88;;;;;;;19.19;58.66;100895.31;7314840;19;130523;-35
2022/03/27 09:26:09;;;;;;;28.77;3.08;;;;;;;19.22;58.98;100894.31;7314496;19;129303;-42
2022/03/27 09:28:37;;;;;;;44.95;4.43;;;;;;;19.23;58.48;100899.44;7311519;19;129488;-30
2022/03/27 09:31:25;;;;;;;29.95;3.17;;;;;;;19.26;59.11;100891.44;7314302;19;131960;-39
2022/03/27 09:33:55;;;;;;;19.98;1.92;;;;;;;19.22;58.73;100889.91;7312548;19;130393;-40
2022/03/27 09:36:28;;;;;;;35.67;3.58;;;;;;;19.16;58.82;100879.88;7311073;19;139947;-43
2022/03/27 09:39:15;;;;;;;35.83;3.72;;;;;;;19.29;59.85;100888.66;7310552;19;129453;-42
2022/03/27 09:41:45;;;;;;;42.30;4.25;;;;;;;19.25;57.58;100884.50;7303319;19;131986;-32
2022/03/27 09:44:31;;;;;;;34.35;3.45;;;;;;;19.22;59.31;100889.91;7311143;19;130499;-35
2022/03/27 09:46:58;;;;;;;53.78;5.07;;;;;;;19.22;59.42;100889.91;7310790;19;129535;-40
2022/03/27 09:49:46;;;;;;;35.25;4.05;;;;;;;19.15;59.90;100870.41;7309750;19;129590;-35
2022/03/27 09:52:19;;;;;;;23.92;3.00;;;;;;;19.24;59.41;100889.81;7304512;19;130131;-41
2022/03/27 09:54:59;;;;;;;48.03;5.03;;;;;;;19.21;58.90;100887.41;7305592;19;131308;-33
2022/03/27 09:57:26;;;;;;;39.55;3.90;;;;;;;19.14;58.99;100871.31;7303175;19;129425;-39
2022/03/27 09:59:54;;;;;;;37.00;3.63;;;;;;;19.21;59.31;100883.03;7304062;19;131038;-39
2022/03/27 10:02:24;;;;;;;53.22;5.75;;;;;;;19.25;58.47;100886.31;7301547;19;130297;-35
2022/03/27 10:04:56;;;;;;;42.80;4.10;;;;;;;19.26;58.76;100880.16;7304944;19;129715;-42
2022/03/27 10:07:24;;;;;;;36.58;4.13;;;;;;;19.25;58.87;100876.69;7304301;19;130201;-36
2022/03/27 10:09:51;;;;;;;43.38;5.07;;;;;;;19.25;57.58;100871.47;7304172;19;129922;-44
2022/03/27 10:12:16;;;;;;;35.95;4.55;;;;;;;19.25;57.14;100868.88;7304978;19;131931;-38
2022/03/27 10:14:44;;;;;;;42.53;4.90;;;;;;;19.24;56.52;100872.44;7307145;19;130641;-32
2022/03/27 10:17:10;;;;;;;43.08;5.00;;;;;;;19.26;56.95;100870.56;7303395;19;130565;-35
2022/03/27 10:19:46;;;;;;;29.63;4.07;;;;;;;19.16;58.46;100846.00;7306137;19;129828;-40
2022/03/27 10:22:20;;;;;;;20.38;2.80;;;;;;;19.25;58.01;100868.88;7309716;19;130134;-32
2022/03/27 10:24:46;;;;;;;48.80;6.07;;;;;;;19.22;57.91;100863.03;7306149;19;131000;-38
2022/03/27 10:27:13;;;;;;;82.35;9.35;;;;;;;19.16;56.99;100843.38;7302021;19;130276;-42
2022/03/27 10:29:39;;;;;;;54.70;6.65;;;;;;;19.22;57.47;100853.44;7302878;19;130144;-42
2022/03/27 10:32:10;;;;;;;65.17;7.87;;;;;;;19.23;56.82;100857.72;7302914;19;132396;-32
2022/03/27 10:34:40;;;;;;;67.50;8.63;;;;;;;19.22;55.83;100857.81;7301280;19;134020;-42
2022/03/27 10:37:22;;;;;;;37.30;6.00;;;;;;;19.18;56.10;100849.34;7306517;19;129320;-35
2022/03/27 10:40:01;;;;;;;52.33;6.68;;;;;;;19.21;55.94;100843.94;7309134;19;129385;-41
2022/03/27 10:42:51;;;;;;;49.08;6.97;;;;;;;19.24;55.76;100846.34;7304468;19;130092;-36
2022/03/27 10:45:19;;;;;;;48.72;6.55;;;;;;;19.21;55.80;100846.53;7305322;19;130499;-34
2022/03/27 10:48:13;;;;;;;50.55;6.07;;;;;;;19.21;55.59;100835.28;7303633;19;129850;-35
2022/03/27 10:50:52;;;;;;;42.20;5.97;;;;;;;19.19;55.04;100832.75;7308424;19;129614;-37
2022/03/27 10:53:23;;;;;;;49.83;6.78;;;;;;;19.17;55.28;100834.63;7302416;19;130972;-40
2022/03/27 10:55:51;;;;;;;47.28;6.38;;;;;;;19.20;55.25;100828.41;7302120;19;130684;-36
2022/03/27 10:58:29;;;;;;;55.58;7.40;;;;;;;19.17;55.12;100829.41;7298824;19;130429;-42
2022/03/27 11:00:54;;;;;;;;;;;;;;;19.24;55.03;100833.31;7302659;19;129255;-41
2022/03/27 11:03:50;;;;;;;47.35;6.13;;;;;;;19.16;55.77;100838.16;7299013;19;129986;-34
2022/03/27 11:06:23;;;;;;;53.50;6.15;;;;;;;19.18;56.43;100828.50;7303458;19;131010;-35
2022/03/27 11:08:49;;;;;;;36.63;5.28;;;;;;;19.11;55.87;100823.72;7298338;19;130532;-42
2022/03/27 11:11:41;;;;;;;34.13;4.67;;;;;;;19.19;56.38;100824.94;7300822;19;132166;-38
2022/03/27 11:14:08;;;;;;;106.07;10.98;;;;;;;19.14;56.17;100829.59;7299600;19;131487;-42
2022/03/27 11:16:36;;;;;;;;;;;;;;;19.21;55.90;100822.22;7299438;19;130850;-38
2022/03/27 11:19:02;;;;;;;29.30;4.00;;;;;;;19.14;55.08;100813.13;7308367;19;130766;-37